createdAt,value
2023-03-02T00:00:48.132Z,-0.47
2023-03-02T00:06:00.508Z,-0.42
2023-03-02T00:11:03.950Z,-0.47
2023-03-02T00:16:06.398Z,-0.50
2023-03-02T00:21:10.581Z,-0.49
2023-03-02T00:26:13.360Z,-0.48
2023-03-02T00:31:15.861Z,-0.51
2023-03-02T00:36:19.117Z,-0.62
2023-03-02T00:41:22.324Z,-0.67
2023-03-02T00:46:25.519Z,-0.68
2023-03-02T00:51:28.315Z,-0.67
2023-03-02T00:56:30.946Z,-0.77
2023-03-02T01:01:35.359Z,-0.73
2023-03-02T01:06:47.173Z,-0.75
2023-03-02T01:11:59.653Z,-0.79
2023-03-02T01:17:02.503Z,-0.81
2023-03-02T01:22:04.894Z,-0.82
2023-03-02T01:27:07.256Z,-0.91
2023-03-02T01:32:10.525Z,-0.91
2023-03-02T01:37:14.253Z,-0.97
2023-03-02T01:42:18.421Z,-0.92
2023-03-02T01:47:21.197Z,-1.01
2023-03-02T01:52:24.015Z,-1.01
2023-03-02T01:57:27.208Z,-1.07
2023-03-02T02:02:29.652Z,-1.15
2023-03-02T02:07:32.283Z,-1.15
2023-03-02T02:12:35.027Z,-1.16
2023-03-02T02:17:38.273Z,-1.20
2023-03-02T02:22:40.729Z,-1.26
2023-03-02T02:27:43.207Z,-1.33
2023-03-02T02:32:45.834Z,-1.29
2023-03-02T02:37:48.161Z,-1.39
2023-03-02T02:42:50.443Z,-1.39
2023-03-02T02:48:02.110Z,-1.30
2023-03-02T02:53:04.525Z,-1.34
2023-03-02T02:58:10.066Z,-1.32
2023-03-02T03:03:29.003Z,-1.37
2023-03-02T03:08:31.343Z,-1.28
2023-03-02T03:13:34.396Z,-1.33
2023-03-02T03:18:46.670Z,-1.33
2023-03-02T03:23:49.853Z,-1.39
2023-03-02T03:28:52.571Z,-1.39
2023-03-02T03:33:55.288Z,-1.40
2023-03-02T03:38:58.003Z,-1.44
2023-03-02T03:44:00.398Z,-1.32
2023-03-02T03:49:04.316Z,-1.39
2023-03-02T03:54:08.055Z,-1.43
2023-03-02T03:59:11.293Z,-1.45
2023-03-02T04:04:13.581Z,-1.48
2023-03-02T04:09:16.277Z,-1.43
2023-03-02T04:14:19.421Z,-1.46
2023-03-02T04:19:21.834Z,-1.43
2023-03-02T04:24:24.957Z,-1.49
2023-03-02T04:29:27.271Z,-1.43
2023-03-02T04:34:29.585Z,-1.59
2023-03-02T04:39:31.971Z,-1.54
2023-03-02T04:44:34.609Z,-1.60
2023-03-02T04:49:36.956Z,-1.65
2023-03-02T04:54:39.352Z,-1.47
2023-03-02T04:59:41.740Z,-1.53
2023-03-02T05:04:44.198Z,-1.52
2023-03-02T05:09:46.558Z,-1.60
2023-03-02T05:14:49.668Z,-1.70
2023-03-02T05:19:51.940Z,-1.58
2023-03-02T05:24:54.291Z,-1.58
2023-03-02T05:29:56.580Z,-1.51
2023-03-02T05:34:59.775Z,-1.55
2023-03-02T05:40:03.432Z,-1.60
2023-03-02T05:45:08.150Z,-1.57
2023-03-02T05:50:19.348Z,-1.49
2023-03-02T05:55:22.508Z,-1.50
2023-03-02T06:00:24.848Z,-1.44
2023-03-02T06:05:27.183Z,-1.52
2023-03-02T06:10:30.409Z,-1.39
2023-03-02T06:15:33.741Z,-1.27
2023-03-02T06:20:36.461Z,-1.14
2023-03-02T06:25:41.380Z,-1.02
2023-03-02T06:30:44.368Z,-0.93
2023-03-02T06:35:46.797Z,-0.95
2023-03-02T06:40:50.070Z,-0.76
2023-03-02T06:45:52.507Z,-0.67
2023-03-02T06:50:55.222Z,-0.53
2023-03-02T06:55:57.572Z,-0.37
2023-03-02T07:00:59.974Z,-0.28
2023-03-02T07:06:02.938Z,-0.34
2023-03-02T07:11:05.283Z,-0.25
2023-03-02T07:16:07.570Z,-0.29
2023-03-02T07:21:10.845Z,-0.17
2023-03-02T07:26:14.237Z,-0.07
2023-03-02T07:31:17.078Z,-0.02
2023-03-02T07:36:19.512Z,0.19
2023-03-02T07:41:22.776Z,0.25
2023-03-02T07:46:25.215Z,0.34
2023-03-02T07:51:27.926Z,0.49
2023-03-02T07:56:30.287Z,0.63
2023-03-02T08:01:33.296Z,0.76
2023-03-02T08:06:36.128Z,0.73
2023-03-02T08:11:38.443Z,0.85
2023-03-02T08:16:41.818Z,1.08
2023-03-02T08:21:44.164Z,1.16
2023-03-02T08:26:46.827Z,1.31
2023-03-02T08:31:49.519Z,1.56
2023-03-02T08:36:52.834Z,1.62
2023-03-02T08:41:55.548Z,2.16
2023-03-02T08:46:58.639Z,2.15
2023-03-02T08:52:01.758Z,2.26
2023-03-02T08:57:04.816Z,2.32
2023-03-02T09:02:07.197Z,2.26
2023-03-02T09:07:10.544Z,2.10
2023-03-02T09:12:14.036Z,2.33
2023-03-02T09:17:17.450Z,2.51
2023-03-02T09:22:20.327Z,2.62
2023-03-02T09:27:23.967Z,2.68
2023-03-02T09:32:28.111Z,2.71
2023-03-02T09:37:30.656Z,3.04
2023-03-02T09:42:43.650Z,3.32
2023-03-02T09:47:47.643Z,3.35
2023-03-02T09:52:49.949Z,3.38
2023-03-02T09:57:53.621Z,3.35
2023-03-02T10:02:58.768Z,3.64
2023-03-02T10:08:05.024Z,3.73
2023-03-02T10:13:07.426Z,3.77
2023-03-02T10:18:11.171Z,3.99
2023-03-02T10:23:13.563Z,4.31
2023-03-02T10:28:17.573Z,4.14
2023-03-02T10:33:20.016Z,4.37
2023-03-02T10:38:22.476Z,4.76
2023-03-02T10:43:25.142Z,5.14
2023-03-02T10:48:27.894Z,5.07
2023-03-02T10:53:30.318Z,5.32
2023-03-02T10:58:32.774Z,5.26
2023-03-02T11:03:35.175Z,5.40
2023-03-02T11:08:37.567Z,5.50
2023-03-02T11:13:41.026Z,5.61
2023-03-02T11:18:43.428Z,5.68
2023-03-02T11:23:46.402Z,5.94
2023-03-02T11:28:48.982Z,6.13
2023-03-02T11:33:51.421Z,6.21
2023-03-02T11:38:53.787Z,6.28
2023-03-02T11:43:56.378Z,6.59
2023-03-02T11:48:58.780Z,6.71
2023-03-02T11:54:01.256Z,6.75
2023-03-02T11:59:04.671Z,6.69
2023-03-02T12:04:12.525Z,6.76
2023-03-02T12:09:15.935Z,7.05
2023-03-02T12:14:19.149Z,7.14
2023-03-02T12:19:21.884Z,7.26
2023-03-02T12:24:25.037Z,7.34
2023-03-02T12:29:27.418Z,7.45
2023-03-02T12:34:31.349Z,7.75
2023-03-02T12:39:33.676Z,7.70
2023-03-02T12:44:38.619Z,7.61
2023-03-02T12:49:40.975Z,7.64
2023-03-02T12:54:44.067Z,7.78
2023-03-02T12:59:47.308Z,7.85
2023-03-02T13:04:50.418Z,8.03
2023-03-02T13:09:57.298Z,8.04
2023-03-02T13:15:00.691Z,8.04
2023-03-02T13:20:03.068Z,7.99
2023-03-02T13:25:06.155Z,8.03
2023-03-02T13:30:09.169Z,8.29
2023-03-02T13:35:12.488Z,8.45
2023-03-02T13:40:14.790Z,8.43
2023-03-02T13:45:17.250Z,8.43
2023-03-02T13:50:19.717Z,8.39
2023-03-02T13:55:31.123Z,8.37
2023-03-02T14:00:33.482Z,8.62
2023-03-02T14:05:36.220Z,8.66
2023-03-02T14:10:39.216Z,8.69
2023-03-02T14:15:42.297Z,8.69
2023-03-02T14:20:45.442Z,8.85
2023-03-02T14:25:47.729Z,8.92
2023-03-02T14:30:50.405Z,8.98
2023-03-02T14:35:53.668Z,8.96
2023-03-02T14:40:56.414Z,8.76
2023-03-02T14:45:59.905Z,8.67
2023-03-02T14:51:04.306Z,8.76
2023-03-02T14:56:07.950Z,8.55
2023-03-02T15:01:10.316Z,8.43
2023-03-02T15:06:13.151Z,8.29
2023-03-02T15:11:15.505Z,8.23
2023-03-02T15:16:17.909Z,8.06
2023-03-02T15:21:20.223Z,8.01
2023-03-02T15:26:24.347Z,7.85
2023-03-02T15:31:28.123Z,7.65
2023-03-02T15:36:30.541Z,7.46
2023-03-02T15:41:36.053Z,7.25
2023-03-02T15:46:38.619Z,7.09
2023-03-02T15:51:40.991Z,6.99
2023-03-02T15:56:45.093Z,6.76
2023-03-02T16:01:47.482Z,6.67
2023-03-02T16:06:49.853Z,6.65
2023-03-02T16:11:53.048Z,6.47
2023-03-02T16:16:56.220Z,6.27
2023-03-02T16:21:59.471Z,6.03
2023-03-02T16:27:01.911Z,5.76
2023-03-02T16:32:04.629Z,5.71
2023-03-02T16:37:07.061Z,5.39
2023-03-02T16:42:11.336Z,5.19
2023-03-02T16:47:14.494Z,4.95
2023-03-02T16:52:17.682Z,4.84
2023-03-02T16:57:25.026Z,4.53
2023-03-02T17:02:29.294Z,4.31
2023-03-02T17:07:32.427Z,4.13
2023-03-02T17:12:34.836Z,3.87
2023-03-02T17:17:37.161Z,3.66
2023-03-02T17:22:39.567Z,3.53
2023-03-02T17:27:42.152Z,3.34
2023-03-02T17:32:46.509Z,3.14
2023-03-02T17:37:48.924Z,3.00
2023-03-02T17:42:54.942Z,2.78
2023-03-02T17:47:58.867Z,2.60
2023-03-02T17:53:02.136Z,2.53
2023-03-02T17:58:05.923Z,2.43
2023-03-02T18:03:09.115Z,2.32
2023-03-02T18:08:11.520Z,2.17
2023-03-02T18:13:14.155Z,2.20
2023-03-02T18:18:16.938Z,2.06
2023-03-02T18:23:21.382Z,2.06
2023-03-02T18:28:33.676Z,1.99
2023-03-02T18:33:36.078Z,1.91
2023-03-02T18:38:38.434Z,1.90
2023-03-02T18:43:41.596Z,1.78
2023-03-02T18:48:43.901Z,1.73
2023-03-02T18:53:46.509Z,1.68
2023-03-02T18:58:49.509Z,1.59
2023-03-02T19:03:53.594Z,1.60
2023-03-02T19:08:56.139Z,1.49
2023-03-02T19:13:58.602Z,1.47
2023-03-02T19:19:01.048Z,1.38
2023-03-02T19:24:03.833Z,1.27
2023-03-02T19:29:06.274Z,1.18
2023-03-02T19:34:08.644Z,1.10
2023-03-02T19:39:11.092Z,1.14
2023-03-02T19:44:13.545Z,1.05
2023-03-02T19:49:15.920Z,1.02
2023-03-02T19:54:23.691Z,0.97
2023-03-02T19:59:26.877Z,0.98
2023-03-02T20:04:29.294Z,0.88
2023-03-02T20:09:31.580Z,0.81
2023-03-02T20:14:34.911Z,0.80
2023-03-02T20:19:37.249Z,0.73
2023-03-02T20:24:39.581Z,0.73
2023-03-02T20:29:41.895Z,0.67
2023-03-02T20:34:44.463Z,0.62
2023-03-02T20:39:47.857Z,0.60
2023-03-02T20:44:51.935Z,0.57
2023-03-02T20:49:55.510Z,0.53
2023-03-02T20:55:03.915Z,0.50
2023-03-02T21:00:16.254Z,0.41
2023-03-02T21:05:28.590Z,0.38
2023-03-02T21:10:30.971Z,0.32
2023-03-02T21:15:37.587Z,0.24
2023-03-02T21:20:40.348Z,0.19
2023-03-02T21:25:43.819Z,0.25
2023-03-02T21:30:46.995Z,0.18
2023-03-02T21:35:51.858Z,0.13
2023-03-02T21:40:55.010Z,0.18
2023-03-02T21:45:57.355Z,0.12
2023-03-02T21:51:00.601Z,0.10
2023-03-02T21:56:03.620Z,0.09
2023-03-02T22:01:06.161Z,0.07
2023-03-02T22:06:08.558Z,0.05
2023-03-02T22:11:11.590Z,0.03
2023-03-02T22:16:14.323Z,-0.02
2023-03-02T22:21:17.919Z,0.06
2023-03-02T22:26:21.060Z,-0.06
2023-03-02T22:31:24.135Z,-0.05
2023-03-02T22:36:26.846Z,-0.14
2023-03-02T22:41:30.056Z,-0.10
2023-03-02T22:46:33.182Z,-0.19
2023-03-02T22:51:35.629Z,-0.23
2023-03-02T22:56:39.350Z,-0.17
2023-03-02T23:01:42.039Z,-0.28
2023-03-02T23:06:45.265Z,-0.33
2023-03-02T23:11:47.611Z,-0.39
2023-03-02T23:16:50.036Z,-0.40
2023-03-02T23:21:52.418Z,-0.37
2023-03-02T23:26:57.383Z,-0.41
2023-03-02T23:31:59.887Z,-0.46
2023-03-02T23:37:02.374Z,-0.47
2023-03-02T23:42:04.729Z,-0.51
2023-03-02T23:47:07.461Z,-0.48
2023-03-02T23:52:09.890Z,-0.51
2023-03-02T23:57:12.318Z,-0.58
